createdAt,value
2023-03-21T19:37:50.784Z,6.65
2023-03-21T19:40:19.794Z,8.27
2023-03-21T19:42:47.181Z,7.43
2023-03-21T19:45:16.482Z,8.75
2023-03-21T19:47:43.997Z,8.15
2023-03-21T19:53:00.585Z,6.70
2023-03-21T19:55:28.129Z,8.98
2023-03-21T19:57:55.541Z,5.78
2023-03-21T20:00:23.061Z,7.20
2023-03-21T20:02:51.582Z,8.30
2023-03-21T20:05:20.511Z,8.07
2023-03-21T20:07:47.912Z,4.57
2023-03-21T20:10:16.711Z,6.50
2023-03-21T20:12:44.077Z,6.60
2023-03-21T20:15:17.691Z,5.40
2023-03-21T20:17:46.888Z,5.60
2023-03-21T20:20:17.534Z,5.55
2023-03-21T20:25:34.596Z,7.25
2023-03-21T20:28:15.212Z,7.72
2023-03-21T20:30:47.757Z,5.65
2023-03-21T20:33:17.137Z,5.32
2023-03-21T20:38:35.896Z,4.93
2023-03-21T20:41:05.958Z,6.55
2023-03-21T20:46:20.965Z,6.03
2023-03-21T20:48:48.874Z,10.45
2023-03-21T20:52:24.192Z,8.18
2023-03-21T20:54:05.247Z,5.68
2023-03-21T20:56:37.222Z,5.15
2023-03-21T20:59:17.330Z,6.07
2023-03-21T21:01:57.119Z,7.25
2023-03-21T21:04:41.235Z,6.15
2023-03-21T21:07:16.039Z,5.20
2023-03-21T21:09:46.747Z,5.22
2023-03-21T21:12:16.531Z,5.65
2023-03-21T21:17:30.784Z,6.50
2023-03-21T21:20:01.532Z,6.40
2023-03-21T21:22:29.429Z,6.40
2023-03-21T21:24:57.114Z,6.72
2023-03-21T21:27:26.056Z,7.07
2023-03-21T21:29:53.477Z,5.10
2023-03-21T21:32:21.284Z,6.97
2023-03-21T21:34:48.931Z,8.48
2023-03-21T21:37:16.334Z,8.60
2023-03-21T21:39:43.686Z,6.05
2023-03-21T21:42:11.098Z,8.13
2023-03-21T21:44:44.225Z,7.00
2023-03-21T21:47:12.136Z,6.15
2023-03-21T21:49:39.926Z,6.50
2023-03-21T21:52:07.888Z,5.97
2023-03-21T21:54:35.361Z,8.88
2023-03-21T21:57:02.871Z,7.72
2023-03-21T21:59:30.376Z,8.25
2023-03-21T22:01:59.492Z,6.43
2023-03-21T22:04:28.626Z,7.78
2023-03-21T22:06:56.191Z,6.95
2023-03-21T22:09:23.638Z,7.55
2023-03-21T22:11:51.431Z,8.35
2023-03-21T22:14:21.244Z,7.47
2023-03-21T22:19:17.528Z,12.18
2023-03-21T22:21:44.898Z,8.33
2023-03-21T22:24:12.322Z,9.23
2023-03-21T22:26:39.916Z,9.35
2023-03-21T22:29:08.178Z,8.00
2023-03-21T22:31:38.741Z,10.88
2023-03-21T22:34:06.363Z,9.13
2023-03-21T22:36:35.448Z,8.10
2023-03-21T22:39:05.032Z,10.20
2023-03-21T22:41:32.400Z,9.40
2023-03-21T22:43:59.782Z,10.60
2023-03-21T22:46:27.576Z,10.98
2023-03-21T22:48:55.040Z,13.15
2023-03-21T22:51:22.419Z,8.75
2023-03-21T22:53:51.120Z,11.13
2023-03-21T22:56:18.515Z,8.38
2023-03-21T22:58:45.885Z,9.98
2023-03-21T23:01:13.319Z,10.57
2023-03-21T23:03:41.726Z,8.60
2023-03-21T23:06:09.436Z,11.63
2023-03-21T23:08:36.784Z,10.77
2023-03-21T23:11:08.235Z,9.75
2023-03-21T23:13:36.718Z,11.55
2023-03-21T23:16:05.046Z,10.95
2023-03-21T23:18:32.490Z,9.52
2023-03-21T23:21:00.233Z,11.30
2023-03-21T23:23:27.828Z,9.73
2023-03-21T23:25:55.580Z,11.60
2023-03-21T23:28:24.332Z,12.05
2023-03-21T23:30:51.751Z,9.95
2023-03-21T23:33:19.178Z,11.40
2023-03-21T23:35:46.545Z,7.43
2023-03-21T23:38:14.015Z,12.27
2023-03-21T23:40:41.875Z,12.52
2023-03-21T23:43:09.574Z,9.68
2023-03-21T23:45:38.267Z,10.95
2023-03-21T23:48:05.989Z,10.43
2023-03-21T23:50:33.747Z,9.48
2023-03-21T23:53:01.145Z,12.15
2023-03-21T23:55:28.490Z,11.48
2023-03-21T23:57:59.540Z,11.35
